sensor_id;sensor_type;location;lat;lon;timestamp;P1;durP1;ratioP1;P2;durP2;ratioP2
22240;SDS011;11289;52.524;13.694;2022-11-20T00:01:07;18.10;;;11.05;;
22240;SDS011;11289;52.524;13.694;2022-11-20T00:03:42;18.30;;;11.25;;
22240;SDS011;11289;52.524;13.694;2022-11-20T00:06:10;19.35;;;12.10;;
22240;SDS011;11289;52.524;13.694;2022-11-20T00:08:38;17.92;;;11.88;;
22240;SDS011;11289;52.524;13.694;2022-11-20T00:13:29;18.77;;;11.00;;
22240;SDS011;11289;52.524;13.694;2022-11-20T00:15:58;19.27;;;12.35;;
22240;SDS011;11289;52.524;13.694;2022-11-20T00:18:24;23.88;;;12.05;;
22240;SDS011;11289;52.524;13.694;2022-11-20T00:20:50;18.95;;;10.77;;
22240;SDS011;11289;52.524;13.694;2022-11-20T00:23:15;18.17;;;11.13;;
22240;SDS011;11289;52.524;13.694;2022-11-20T00:25:41;21.08;;;11.45;;
22240;SDS011;11289;52.524;13.694;2022-11-20T00:28:07;19.70;;;10.40;;
22240;SDS011;11289;52.524;13.694;2022-11-20T00:30:33;18.05;;;11.27;;
22240;SDS011;11289;52.524;13.694;2022-11-20T00:32:58;17.75;;;11.00;;
22240;SDS011;11289;52.524;13.694;2022-11-20T00:35:23;19.80;;;11.68;;
22240;SDS011;11289;52.524;13.694;2022-11-20T00:37:49;16.85;;;10.90;;
22240;SDS011;11289;52.524;13.694;2022-11-20T00:40:14;16.65;;;11.05;;
22240;SDS011;11289;52.524;13.694;2022-11-20T00:42:39;16.40;;;10.85;;
22240;SDS011;11289;52.524;13.694;2022-11-20T00:45:05;19.00;;;11.55;;
22240;SDS011;11289;52.524;13.694;2022-11-20T00:47:30;21.33;;;11.52;;
22240;SDS011;11289;52.524;13.694;2022-11-20T00:49:56;19.25;;;11.35;;
22240;SDS011;11289;52.524;13.694;2022-11-20T00:52:21;17.25;;;11.48;;
22240;SDS011;11289;52.524;13.694;2022-11-20T00:54:46;18.63;;;12.18;;
22240;SDS011;11289;52.524;13.694;2022-11-20T00:57:12;18.52;;;11.38;;
22240;SDS011;11289;52.524;13.694;2022-11-20T00:59:37;17.90;;;10.80;;
22240;SDS011;11289;52.524;13.694;2022-11-20T01:02:03;19.67;;;12.23;;
22240;SDS011;11289;52.524;13.694;2022-11-20T01:04:29;18.52;;;11.63;;
22240;SDS011;11289;52.524;13.694;2022-11-20T01:06:54;17.63;;;10.80;;
22240;SDS011;11289;52.524;13.694;2022-11-20T01:09:20;17.35;;;12.10;;
22240;SDS011;11289;52.524;13.694;2022-11-20T01:11:45;15.95;;;11.43;;
22240;SDS011;11289;52.524;13.694;2022-11-20T01:14:12;16.88;;;11.43;;
22240;SDS011;11289;52.524;13.694;2022-11-20T01:16:40;17.23;;;11.15;;
22240;SDS011;11289;52.524;13.694;2022-11-20T01:19:11;17.70;;;10.75;;
22240;SDS011;11289;52.524;13.694;2022-11-20T01:21:39;19.23;;;11.13;;
22240;SDS011;11289;52.524;13.694;2022-11-20T01:24:07;22.10;;;10.85;;
22240;SDS011;11289;52.524;13.694;2022-11-20T01:26:35;18.75;;;10.00;;
22240;SDS011;11289;52.524;13.694;2022-11-20T01:29:02;18.65;;;10.52;;
22240;SDS011;11289;52.524;13.694;2022-11-20T01:31:33;16.75;;;10.35;;
22240;SDS011;11289;52.524;13.694;2022-11-20T01:34:01;18.85;;;10.82;;
22240;SDS011;11289;52.524;13.694;2022-11-20T01:36:29;21.40;;;11.07;;
22240;SDS011;11289;52.524;13.694;2022-11-20T01:38:56;19.63;;;11.55;;
22240;SDS011;11289;52.524;13.694;2022-11-20T01:41:24;18.77;;;12.60;;
22240;SDS011;11289;52.524;13.694;2022-11-20T01:44:10;24.50;;;14.90;;
22240;SDS011;11289;52.524;13.694;2022-11-20T01:46:40;27.40;;;15.68;;
22240;SDS011;11289;52.524;13.694;2022-11-20T01:49:23;26.13;;;15.57;;
22240;SDS011;11289;52.524;13.694;2022-11-20T01:51:55;23.60;;;14.98;;
22240;SDS011;11289;52.524;13.694;2022-11-20T01:54:28;20.00;;;11.93;;
22240;SDS011;11289;52.524;13.694;2022-11-20T01:57:00;19.38;;;12.13;;
22240;SDS011;11289;52.524;13.694;2022-11-20T01:59:26;20.40;;;12.45;;
22240;SDS011;11289;52.524;13.694;2022-11-20T02:01:54;17.13;;;11.65;;
22240;SDS011;11289;52.524;13.694;2022-11-20T02:04:20;21.38;;;13.63;;
22240;SDS011;11289;52.524;13.694;2022-11-20T02:06:51;19.63;;;11.55;;
22240;SDS011;11289;52.524;13.694;2022-11-20T02:09:19;19.55;;;12.10;;
22240;SDS011;11289;52.524;13.694;2022-11-20T02:11:44;18.25;;;11.93;;
22240;SDS011;11289;52.524;13.694;2022-11-20T02:14:10;18.05;;;11.40;;
22240;SDS011;11289;52.524;13.694;2022-11-20T02:16:39;19.25;;;12.23;;
22240;SDS011;11289;52.524;13.694;2022-11-20T02:19:13;21.50;;;12.20;;
22240;SDS011;11289;52.524;13.694;2022-11-20T02:22:05;20.45;;;12.65;;
22240;SDS011;11289;52.524;13.694;2022-11-20T02:24:37;21.90;;;11.95;;
22240;SDS011;11289;52.524;13.694;2022-11-20T02:27:03;18.58;;;11.55;;
22240;SDS011;11289;52.524;13.694;2022-11-20T02:29:43;18.90;;;10.50;;
22240;SDS011;11289;52.524;13.694;2022-11-20T02:32:33;21.70;;;12.25;;
22240;SDS011;11289;52.524;13.694;2022-11-20T02:35:07;24.35;;;13.25;;
22240;SDS011;11289;52.524;13.694;2022-11-20T02:37:37;21.27;;;12.90;;
22240;SDS011;11289;52.524;13.694;2022-11-20T02:40:05;18.75;;;12.70;;
22240;SDS011;11289;52.524;13.694;2022-11-20T02:42:31;20.45;;;12.38;;
22240;SDS011;11289;52.524;13.694;2022-11-20T02:44:56;19.05;;;11.95;;
22240;SDS011;11289;52.524;13.694;2022-11-20T02:47:21;19.77;;;12.52;;
22240;SDS011;11289;52.524;13.694;2022-11-20T02:49:47;19.02;;;11.90;;
22240;SDS011;11289;52.524;13.694;2022-11-20T02:52:12;21.30;;;13.23;;
22240;SDS011;11289;52.524;13.694;2022-11-20T02:54:37;18.30;;;12.27;;
22240;SDS011;11289;52.524;13.694;2022-11-20T02:57:03;17.45;;;12.27;;
22240;SDS011;11289;52.524;13.694;2022-11-20T02:59:28;21.73;;;12.50;;
22240;SDS011;11289;52.524;13.694;2022-11-20T03:01:53;17.60;;;10.98;;
22240;SDS011;11289;52.524;13.694;2022-11-20T03:04:19;23.02;;;11.98;;
22240;SDS011;11289;52.524;13.694;2022-11-20T03:06:44;23.08;;;12.68;;
22240;SDS011;11289;52.524;13.694;2022-11-20T03:09:10;21.73;;;12.27;;
22240;SDS011;11289;52.524;13.694;2022-11-20T03:11:35;19.90;;;12.98;;
22240;SDS011;11289;52.524;13.694;2022-11-20T03:14:01;19.50;;;12.70;;
22240;SDS011;11289;52.524;13.694;2022-11-20T03:16:28;21.15;;;11.85;;
22240;SDS011;11289;52.524;13.694;2022-11-20T03:18:53;21.88;;;12.35;;
22240;SDS011;11289;52.524;13.694;2022-11-20T03:21:18;19.42;;;12.38;;
22240;SDS011;11289;52.524;13.694;2022-11-20T03:23:44;18.38;;;12.30;;
22240;SDS011;11289;52.524;13.694;2022-11-20T03:26:17;23.40;;;13.70;;
22240;SDS011;11289;52.524;13.694;2022-11-20T03:28:48;23.55;;;11.73;;
22240;SDS011;11289;52.524;13.694;2022-11-20T03:31:18;21.27;;;12.85;;
22240;SDS011;11289;52.524;13.694;2022-11-20T03:33:46;23.10;;;11.98;;
22240;SDS011;11289;52.524;13.694;2022-11-20T03:36:12;21.35;;;12.55;;
22240;SDS011;11289;52.524;13.694;2022-11-20T03:38:39;19.17;;;12.38;;
22240;SDS011;11289;52.524;13.694;2022-11-20T03:41:07;18.42;;;12.02;;
22240;SDS011;11289;52.524;13.694;2022-11-20T03:43:33;19.48;;;11.90;;
22240;SDS011;11289;52.524;13.694;2022-11-20T03:45:59;22.98;;;13.70;;
22240;SDS011;11289;52.524;13.694;2022-11-20T03:48:25;20.13;;;12.60;;
22240;SDS011;11289;52.524;13.694;2022-11-20T03:50:51;21.95;;;12.63;;
22240;SDS011;11289;52.524;13.694;2022-11-20T03:53:37;19.95;;;11.65;;
22240;SDS011;11289;52.524;13.694;2022-11-20T03:56:03;18.05;;;11.77;;
22240;SDS011;11289;52.524;13.694;2022-11-20T03:58:30;20.60;;;13.60;;
22240;SDS011;11289;52.524;13.694;2022-11-20T04:00:55;19.13;;;12.27;;
22240;SDS011;11289;52.524;13.694;2022-11-20T04:03:20;18.67;;;11.98;;
22240;SDS011;11289;52.524;13.694;2022-11-20T04:05:46;17.27;;;11.90;;
22240;SDS011;11289;52.524;13.694;2022-11-20T04:08:11;20.52;;;12.55;;
22240;SDS011;11289;52.524;13.694;2022-11-20T04:10:36;20.55;;;12.32;;
22240;SDS011;11289;52.524;13.694;2022-11-20T04:13:02;18.88;;;12.25;;
22240;SDS011;11289;52.524;13.694;2022-11-20T04:15:28;19.52;;;12.32;;
22240;SDS011;11289;52.524;13.694;2022-11-20T04:17:53;19.38;;;12.00;;
22240;SDS011;11289;52.524;13.694;2022-11-20T04:20:20;21.38;;;13.65;;
22240;SDS011;11289;52.524;13.694;2022-11-20T04:22:45;17.70;;;12.07;;
22240;SDS011;11289;52.524;13.694;2022-11-20T04:25:11;19.42;;;12.15;;
22240;SDS011;11289;52.524;13.694;2022-11-20T04:27:36;20.40;;;12.85;;
22240;SDS011;11289;52.524;13.694;2022-11-20T04:30:02;20.27;;;11.82;;
22240;SDS011;11289;52.524;13.694;2022-11-20T04:32:27;21.60;;;12.75;;
22240;SDS011;11289;52.524;13.694;2022-11-20T04:34:52;23.15;;;13.35;;
22240;SDS011;11289;52.524;13.694;2022-11-20T04:37:18;20.73;;;13.35;;
22240;SDS011;11289;52.524;13.694;2022-11-20T04:39:43;17.23;;;12.52;;
22240;SDS011;11289;52.524;13.694;2022-11-20T04:42:09;20.73;;;12.95;;
22240;SDS011;11289;52.524;13.694;2022-11-20T04:44:53;20.23;;;11.85;;
22240;SDS011;11289;52.524;13.694;2022-11-20T04:47:19;20.00;;;12.57;;
22240;SDS011;11289;52.524;13.694;2022-11-20T04:49:45;19.92;;;13.55;;
22240;SDS011;11289;52.524;13.694;2022-11-20T04:52:10;22.27;;;12.40;;
22240;SDS011;11289;52.524;13.694;2022-11-20T04:54:35;18.80;;;12.70;;
22240;SDS011;11289;52.524;13.694;2022-11-20T04:57:01;21.80;;;14.73;;
22240;SDS011;11289;52.524;13.694;2022-11-20T04:59:32;20.67;;;13.25;;
22240;SDS011;11289;52.524;13.694;2022-11-20T05:01:57;22.67;;;13.10;;
22240;SDS011;11289;52.524;13.694;2022-11-20T05:04:22;16.77;;;12.02;;
22240;SDS011;11289;52.524;13.694;2022-11-20T05:06:49;21.55;;;12.60;;
22240;SDS011;11289;52.524;13.694;2022-11-20T05:09:14;20.45;;;12.80;;
22240;SDS011;11289;52.524;13.694;2022-11-20T05:11:40;20.67;;;13.02;;
22240;SDS011;11289;52.524;13.694;2022-11-20T05:14:05;23.75;;;14.80;;
22240;SDS011;11289;52.524;13.694;2022-11-20T05:16:31;20.00;;;12.35;;
22240;SDS011;11289;52.524;13.694;2022-11-20T05:18:59;18.80;;;12.63;;
22240;SDS011;11289;52.524;13.694;2022-11-20T05:21:24;23.92;;;14.02;;
22240;SDS011;11289;52.524;13.694;2022-11-20T05:23:49;19.10;;;12.43;;
22240;SDS011;11289;52.524;13.694;2022-11-20T05:26:19;21.75;;;13.05;;
22240;SDS011;11289;52.524;13.694;2022-11-20T05:28:46;20.88;;;13.43;;
22240;SDS011;11289;52.524;13.694;2022-11-20T05:31:14;23.55;;;13.88;;
22240;SDS011;11289;52.524;13.694;2022-11-20T05:33:41;23.35;;;14.35;;
22240;SDS011;11289;52.524;13.694;2022-11-20T05:36:09;36.10;;;21.77;;
22240;SDS011;11289;52.524;13.694;2022-11-20T05:38:37;36.40;;;21.33;;
22240;SDS011;11289;52.524;13.694;2022-11-20T05:41:17;28.60;;;17.48;;
22240;SDS011;11289;52.524;13.694;2022-11-20T05:43:45;30.92;;;17.23;;
22240;SDS011;11289;52.524;13.694;2022-11-20T05:46:12;34.53;;;19.05;;
22240;SDS011;11289;52.524;13.694;2022-11-20T05:48:40;28.83;;;17.02;;
22240;SDS011;11289;52.524;13.694;2022-11-20T05:51:07;33.92;;;18.65;;
22240;SDS011;11289;52.524;13.694;2022-11-20T05:53:34;30.20;;;18.60;;
22240;SDS011;11289;52.524;13.694;2022-11-20T05:56:01;24.75;;;15.52;;
22240;SDS011;11289;52.524;13.694;2022-11-20T05:58:30;24.55;;;14.20;;
22240;SDS011;11289;52.524;13.694;2022-11-20T06:01:03;22.45;;;14.27;;
22240;SDS011;11289;52.524;13.694;2022-11-20T06:03:32;20.70;;;13.35;;
22240;SDS011;11289;52.524;13.694;2022-11-20T06:06:01;23.88;;;14.75;;
22240;SDS011;11289;52.524;13.694;2022-11-20T06:08:27;23.27;;;13.38;;
22240;SDS011;11289;52.524;13.694;2022-11-20T06:10:53;21.33;;;13.10;;
22240;SDS011;11289;52.524;13.694;2022-11-20T06:13:18;20.77;;;13.38;;
22240;SDS011;11289;52.524;13.694;2022-11-20T06:15:50;23.77;;;13.18;;
22240;SDS011;11289;52.524;13.694;2022-11-20T06:18:17;20.10;;;14.10;;
22240;SDS011;11289;52.524;13.694;2022-11-20T06:20:43;23.40;;;14.15;;
22240;SDS011;11289;52.524;13.694;2022-11-20T06:23:08;22.65;;;12.63;;
22240;SDS011;11289;52.524;13.694;2022-11-20T06:25:37;22.17;;;13.00;;
22240;SDS011;11289;52.524;13.694;2022-11-20T06:28:03;23.48;;;13.43;;
22240;SDS011;11289;52.524;13.694;2022-11-20T06:30:28;19.08;;;13.38;;
22240;SDS011;11289;52.524;13.694;2022-11-20T06:32:54;21.45;;;13.23;;
22240;SDS011;11289;52.524;13.694;2022-11-20T06:35:19;23.65;;;14.35;;
22240;SDS011;11289;52.524;13.694;2022-11-20T06:37:45;23.40;;;13.55;;
22240;SDS011;11289;52.524;13.694;2022-11-20T06:40:10;19.38;;;13.00;;
22240;SDS011;11289;52.524;13.694;2022-11-20T06:42:36;20.33;;;12.85;;
22240;SDS011;11289;52.524;13.694;2022-11-20T06:45:01;24.50;;;13.77;;
22240;SDS011;11289;52.524;13.694;2022-11-20T06:47:27;23.05;;;13.88;;
22240;SDS011;11289;52.524;13.694;2022-11-20T06:49:52;23.20;;;13.38;;
22240;SDS011;11289;52.524;13.694;2022-11-20T06:52:17;20.27;;;13.13;;
22240;SDS011;11289;52.524;13.694;2022-11-20T06:54:43;20.23;;;12.60;;
22240;SDS011;11289;52.524;13.694;2022-11-20T06:57:08;23.05;;;14.23;;
22240;SDS011;11289;52.524;13.694;2022-11-20T06:59:33;21.83;;;13.48;;
22240;SDS011;11289;52.524;13.694;2022-11-20T07:01:59;20.73;;;13.60;;
22240;SDS011;11289;52.524;13.694;2022-11-20T07:04:24;21.25;;;13.88;;
22240;SDS011;11289;52.524;13.694;2022-11-20T07:06:49;22.13;;;13.73;;
22240;SDS011;11289;52.524;13.694;2022-11-20T07:11:44;20.67;;;13.32;;
22240;SDS011;11289;52.524;13.694;2022-11-20T07:14:09;20.77;;;13.95;;
22240;SDS011;11289;52.524;13.694;2022-11-20T07:16:35;23.27;;;13.63;;
22240;SDS011;11289;52.524;13.694;2022-11-20T07:19:00;24.38;;;13.85;;
22240;SDS011;11289;52.524;13.694;2022-11-20T07:21:26;19.77;;;12.65;;
22240;SDS011;11289;52.524;13.694;2022-11-20T07:23:51;22.02;;;14.13;;
22240;SDS011;11289;52.524;13.694;2022-11-20T07:26:16;22.23;;;14.30;;
22240;SDS011;11289;52.524;13.694;2022-11-20T07:28:43;18.50;;;12.38;;
22240;SDS011;11289;52.524;13.694;2022-11-20T07:31:09;23.48;;;13.90;;
22240;SDS011;11289;52.524;13.694;2022-11-20T07:33:34;24.48;;;13.57;;
22240;SDS011;11289;52.524;13.694;2022-11-20T07:36:00;21.08;;;12.65;;
22240;SDS011;11289;52.524;13.694;2022-11-20T07:38:26;20.25;;;12.65;;
22240;SDS011;11289;52.524;13.694;2022-11-20T07:40:55;43.33;;;26.88;;
22240;SDS011;11289;52.524;13.694;2022-11-20T07:43:26;24.80;;;15.88;;
22240;SDS011;11289;52.524;13.694;2022-11-20T07:45:51;23.73;;;14.20;;
22240;SDS011;11289;52.524;13.694;2022-11-20T07:48:31;19.65;;;13.75;;
22240;SDS011;11289;52.524;13.694;2022-11-20T07:50:57;21.20;;;14.40;;
22240;SDS011;11289;52.524;13.694;2022-11-20T07:53:23;22.73;;;13.98;;
22240;SDS011;11289;52.524;13.694;2022-11-20T07:55:49;21.73;;;14.60;;
22240;SDS011;11289;52.524;13.694;2022-11-20T07:58:17;22.60;;;13.25;;
22240;SDS011;11289;52.524;13.694;2022-11-20T08:00:42;23.58;;;14.07;;
22240;SDS011;11289;52.524;13.694;2022-11-20T08:03:08;21.70;;;13.30;;
22240;SDS011;11289;52.524;13.694;2022-11-20T08:05:33;27.65;;;14.93;;
22240;SDS011;11289;52.524;13.694;2022-11-20T08:07:59;22.42;;;13.95;;
22240;SDS011;11289;52.524;13.694;2022-11-20T08:10:24;23.40;;;14.63;;
22240;SDS011;11289;52.524;13.694;2022-11-20T08:12:50;21.35;;;14.35;;
22240;SDS011;11289;52.524;13.694;2022-11-20T08:15:36;22.20;;;14.52;;
22240;SDS011;11289;52.524;13.694;2022-11-20T08:20:39;24.30;;;14.05;;
22240;SDS011;11289;52.524;13.694;2022-11-20T08:23:05;23.08;;;15.57;;
22240;SDS011;11289;52.524;13.694;2022-11-20T08:25:32;23.35;;;14.55;;
22240;SDS011;11289;52.524;13.694;2022-11-20T08:28:05;25.08;;;14.82;;
22240;SDS011;11289;52.524;13.694;2022-11-20T08:30:32;27.77;;;16.38;;
22240;SDS011;11289;52.524;13.694;2022-11-20T08:33:05;26.33;;;16.67;;
22240;SDS011;11289;52.524;13.694;2022-11-20T08:35:33;24.85;;;14.70;;
22240;SDS011;11289;52.524;13.694;2022-11-20T08:38:01;23.40;;;14.88;;
22240;SDS011;11289;52.524;13.694;2022-11-20T08:40:36;24.67;;;15.05;;
22240;SDS011;11289;52.524;13.694;2022-11-20T08:43:02;25.77;;;15.75;;
22240;SDS011;11289;52.524;13.694;2022-11-20T08:45:27;32.65;;;18.98;;
22240;SDS011;11289;52.524;13.694;2022-11-20T08:47:52;35.42;;;20.38;;
22240;SDS011;11289;52.524;13.694;2022-11-20T08:50:18;27.05;;;15.88;;
22240;SDS011;11289;52.524;13.694;2022-11-20T08:52:43;24.15;;;14.85;;
22240;SDS011;11289;52.524;13.694;2022-11-20T08:58:10;25.60;;;14.77;;
22240;SDS011;11289;52.524;13.694;2022-11-20T09:03:09;26.65;;;14.77;;
22240;SDS011;11289;52.524;13.694;2022-11-20T09:05:35;25.05;;;15.38;;
22240;SDS011;11289;52.524;13.694;2022-11-20T09:10:54;27.00;;;16.67;;
22240;SDS011;11289;52.524;13.694;2022-11-20T09:16:12;29.63;;;18.42;;
22240;SDS011;11289;52.524;13.694;2022-11-20T09:18:37;26.38;;;17.15;;
22240;SDS011;11289;52.524;13.694;2022-11-20T09:21:05;26.83;;;16.20;;
22240;SDS011;11289;52.524;13.694;2022-11-20T09:23:32;24.80;;;15.43;;
22240;SDS011;11289;52.524;13.694;2022-11-20T09:26:05;23.10;;;15.20;;
22240;SDS011;11289;52.524;13.694;2022-11-20T09:28:40;22.33;;;14.07;;
22240;SDS011;11289;52.524;13.694;2022-11-20T09:31:06;23.30;;;15.07;;
22240;SDS011;11289;52.524;13.694;2022-11-20T09:33:32;24.20;;;14.52;;
22240;SDS011;11289;52.524;13.694;2022-11-20T09:35:58;22.77;;;14.95;;
22240;SDS011;11289;52.524;13.694;2022-11-20T09:38:23;26.27;;;14.35;;
22240;SDS011;11289;52.524;13.694;2022-11-20T09:40:51;22.08;;;14.82;;
22240;SDS011;11289;52.524;13.694;2022-11-20T09:46:36;23.27;;;14.48;;
22240;SDS011;11289;52.524;13.694;2022-11-20T09:51:57;28.30;;;18.33;;
22240;SDS011;11289;52.524;13.694;2022-11-20T09:54:35;26.73;;;16.23;;
22240;SDS011;11289;52.524;13.694;2022-11-20T09:57:14;23.15;;;15.50;;
22240;SDS011;11289;52.524;13.694;2022-11-20T09:59:45;22.60;;;14.25;;
22240;SDS011;11289;52.524;13.694;2022-11-20T10:05:02;24.67;;;14.93;;
22240;SDS011;11289;52.524;13.694;2022-11-20T10:07:37;23.17;;;15.20;;
22240;SDS011;11289;52.524;13.694;2022-11-20T10:10:21;24.13;;;15.98;;
22240;SDS011;11289;52.524;13.694;2022-11-20T10:21:30;24.60;;;16.17;;
22240;SDS011;11289;52.524;13.694;2022-11-20T10:30:08;27.00;;;15.55;;
22240;SDS011;11289;52.524;13.694;2022-11-20T10:32:51;23.50;;;14.55;;
22240;SDS011;11289;52.524;13.694;2022-11-20T10:37:49;24.55;;;14.57;;
22240;SDS011;11289;52.524;13.694;2022-11-20T10:40:22;25.27;;;16.02;;
22240;SDS011;11289;52.524;13.694;2022-11-20T10:45:31;26.23;;;15.38;;
22240;SDS011;11289;52.524;13.694;2022-11-20T10:48:10;24.13;;;14.98;;
22240;SDS011;11289;52.524;13.694;2022-11-20T10:50:43;26.02;;;16.17;;
22240;SDS011;11289;52.524;13.694;2022-11-20T10:53:27;25.08;;;14.50;;
22240;SDS011;11289;52.524;13.694;2022-11-20T10:56:07;30.77;;;18.00;;
22240;SDS011;11289;52.524;13.694;2022-11-20T11:01:23;23.55;;;15.20;;
22240;SDS011;11289;52.524;13.694;2022-11-20T11:03:48;23.73;;;15.60;;
22240;SDS011;11289;52.524;13.694;2022-11-20T11:06:21;25.65;;;15.10;;
22240;SDS011;11289;52.524;13.694;2022-11-20T11:08:58;26.48;;;15.45;;
22240;SDS011;11289;52.524;13.694;2022-11-20T11:11:31;25.60;;;15.82;;
22240;SDS011;11289;52.524;13.694;2022-11-20T11:14:10;26.27;;;17.52;;
22240;SDS011;11289;52.524;13.694;2022-11-20T11:16:52;24.05;;;16.45;;
22240;SDS011;11289;52.524;13.694;2022-11-20T11:19:19;24.45;;;15.50;;
22240;SDS011;11289;52.524;13.694;2022-11-20T11:21:55;24.45;;;15.70;;
22240;SDS011;11289;52.524;13.694;2022-11-20T11:26:55;25.23;;;16.15;;
22240;SDS011;11289;52.524;13.694;2022-11-20T11:29:21;23.55;;;14.93;;
22240;SDS011;11289;52.524;13.694;2022-11-20T11:31:46;22.80;;;15.15;;
22240;SDS011;11289;52.524;13.694;2022-11-20T11:34:13;27.88;;;16.55;;
22240;SDS011;11289;52.524;13.694;2022-11-20T11:36:40;26.42;;;16.58;;
22240;SDS011;11289;52.524;13.694;2022-11-20T11:39:11;23.70;;;16.40;;
22240;SDS011;11289;52.524;13.694;2022-11-20T11:41:40;27.33;;;16.85;;
22240;SDS011;11289;52.524;13.694;2022-11-20T11:44:23;25.45;;;16.60;;
22240;SDS011;11289;52.524;13.694;2022-11-20T11:47:19;24.27;;;16.35;;
22240;SDS011;11289;52.524;13.694;2022-11-20T11:49:49;24.55;;;16.33;;
22240;SDS011;11289;52.524;13.694;2022-11-20T11:52:26;26.90;;;17.05;;
22240;SDS011;11289;52.524;13.694;2022-11-20T11:54:58;27.33;;;15.80;;
22240;SDS011;11289;52.524;13.694;2022-11-20T11:57:34;24.60;;;16.55;;
22240;SDS011;11289;52.524;13.694;2022-11-20T12:06:06;24.05;;;15.20;;
22240;SDS011;11289;52.524;13.694;2022-11-20T12:11:21;27.15;;;17.23;;
22240;SDS011;11289;52.524;13.694;2022-11-20T12:13:58;25.58;;;16.02;;
22240;SDS011;11289;52.524;13.694;2022-11-20T12:16:30;25.13;;;15.20;;
22240;SDS011;11289;52.524;13.694;2022-11-20T12:19:01;24.43;;;15.97;;
22240;SDS011;11289;52.524;13.694;2022-11-20T12:21:36;25.25;;;15.85;;
22240;SDS011;11289;52.524;13.694;2022-11-20T12:30:10;25.27;;;15.50;;
22240;SDS011;11289;52.524;13.694;2022-11-20T12:32:51;27.17;;;16.52;;
22240;SDS011;11289;52.524;13.694;2022-11-20T12:41:21;26.83;;;15.32;;
22240;SDS011;11289;52.524;13.694;2022-11-20T12:49:56;25.70;;;17.25;;
22240;SDS011;11289;52.524;13.694;2022-11-20T12:52:53;24.08;;;17.02;;
22240;SDS011;11289;52.524;13.694;2022-11-20T12:55:32;27.00;;;17.05;;
22240;SDS011;11289;52.524;13.694;2022-11-20T12:58:18;25.48;;;16.05;;
22240;SDS011;11289;52.524;13.694;2022-11-20T13:03:44;29.25;;;17.65;;
22240;SDS011;11289;52.524;13.694;2022-11-20T13:06:18;25.77;;;15.50;;
22240;SDS011;11289;52.524;13.694;2022-11-20T13:08:48;22.75;;;15.95;;
22240;SDS011;11289;52.524;13.694;2022-11-20T13:17:10;25.27;;;16.95;;
22240;SDS011;11289;52.524;13.694;2022-11-20T13:19:32;24.67;;;15.35;;
22240;SDS011;11289;52.524;13.694;2022-11-20T13:21:58;24.95;;;16.55;;
22240;SDS011;11289;52.524;13.694;2022-11-20T13:24:25;27.13;;;15.98;;
22240;SDS011;11289;52.524;13.694;2022-11-20T13:29:34;21.70;;;14.50;;
22240;SDS011;11289;52.524;13.694;2022-11-20T13:32:04;23.75;;;14.65;;
22240;SDS011;11289;52.524;13.694;2022-11-20T13:34:39;28.08;;;15.52;;
22240;SDS011;11289;52.524;13.694;2022-11-20T13:37:31;23.52;;;14.20;;
22240;SDS011;11289;52.524;13.694;2022-11-20T13:40:10;23.35;;;15.43;;
22240;SDS011;11289;52.524;13.694;2022-11-20T13:45:28;27.13;;;16.15;;
22240;SDS011;11289;52.524;13.694;2022-11-20T13:47:56;23.42;;;15.73;;
22240;SDS011;11289;52.524;13.694;2022-11-20T13:51:08;24.30;;;14.52;;
22240;SDS011;11289;52.524;13.694;2022-11-20T13:55:54;34.38;;;19.83;;
22240;SDS011;11289;52.524;13.694;2022-11-20T14:01:30;18.85;;;12.43;;
22240;SDS011;11289;52.524;13.694;2022-11-20T14:03:58;16.95;;;10.30;;
22240;SDS011;11289;52.524;13.694;2022-11-20T14:06:35;16.35;;;10.32;;
22240;SDS011;11289;52.524;13.694;2022-11-20T14:09:10;15.93;;;9.80;;
22240;SDS011;11289;52.524;13.694;2022-11-20T14:11:50;17.98;;;9.65;;
22240;SDS011;11289;52.524;13.694;2022-11-20T14:14:16;15.27;;;9.80;;
22240;SDS011;11289;52.524;13.694;2022-11-20T14:16:44;17.45;;;10.10;;
22240;SDS011;11289;52.524;13.694;2022-11-20T14:21:48;17.10;;;9.90;;
22240;SDS011;11289;52.524;13.694;2022-11-20T14:24:21;14.52;;;9.43;;
22240;SDS011;11289;52.524;13.694;2022-11-20T14:26:48;15.50;;;9.82;;
22240;SDS011;11289;52.524;13.694;2022-11-20T14:29:16;14.23;;;8.82;;
22240;SDS011;11289;52.524;13.694;2022-11-20T14:31:47;15.90;;;9.75;;
22240;SDS011;11289;52.524;13.694;2022-11-20T14:34:26;15.48;;;10.27;;
22240;SDS011;11289;52.524;13.694;2022-11-20T14:37:05;15.38;;;9.23;;
22240;SDS011;11289;52.524;13.694;2022-11-20T14:39:46;13.77;;;8.52;;
22240;SDS011;11289;52.524;13.694;2022-11-20T14:42:15;13.48;;;9.25;;
22240;SDS011;11289;52.524;13.694;2022-11-20T14:44:42;14.27;;;8.77;;
22240;SDS011;11289;52.524;13.694;2022-11-20T14:47:08;16.08;;;9.80;;
22240;SDS011;11289;52.524;13.694;2022-11-20T14:49:38;11.75;;;7.88;;
22240;SDS011;11289;52.524;13.694;2022-11-20T14:52:13;16.40;;;9.13;;
22240;SDS011;11289;52.524;13.694;2022-11-20T14:55:03;13.52;;;8.68;;
22240;SDS011;11289;52.524;13.694;2022-11-20T14:57:30;13.27;;;8.18;;
22240;SDS011;11289;52.524;13.694;2022-11-20T15:00:18;17.65;;;9.70;;
22240;SDS011;11289;52.524;13.694;2022-11-20T15:02:50;13.68;;;9.13;;
22240;SDS011;11289;52.524;13.694;2022-11-20T15:05:17;14.65;;;9.73;;
22240;SDS011;11289;52.524;13.694;2022-11-20T15:07:46;16.25;;;9.38;;
22240;SDS011;11289;52.524;13.694;2022-11-20T15:12:49;17.20;;;11.47;;
22240;SDS011;11289;52.524;13.694;2022-11-20T15:15:17;19.95;;;11.75;;
22240;SDS011;11289;52.524;13.694;2022-11-20T15:17:48;17.25;;;10.52;;
22240;SDS011;11289;52.524;13.694;2022-11-20T15:20:14;19.35;;;12.07;;
22240;SDS011;11289;52.524;13.694;2022-11-20T15:22:41;20.73;;;11.98;;
22240;SDS011;11289;52.524;13.694;2022-11-20T15:25:13;14.73;;;9.60;;
22240;SDS011;11289;52.524;13.694;2022-11-20T15:30:59;15.02;;;9.63;;
22240;SDS011;11289;52.524;13.694;2022-11-20T15:33:25;16.58;;;9.45;;
22240;SDS011;11289;52.524;13.694;2022-11-20T15:35:51;15.07;;;10.98;;
22240;SDS011;11289;52.524;13.694;2022-11-20T15:38:16;12.63;;;9.23;;
22240;SDS011;11289;52.524;13.694;2022-11-20T15:40:42;20.52;;;12.25;;
22240;SDS011;11289;52.524;13.694;2022-11-20T15:43:16;18.02;;;11.35;;
22240;SDS011;11289;52.524;13.694;2022-11-20T15:45:53;16.50;;;10.43;;
22240;SDS011;11289;52.524;13.694;2022-11-20T15:48:29;16.52;;;9.85;;
22240;SDS011;11289;52.524;13.694;2022-11-20T15:53:55;16.27;;;10.10;;
22240;SDS011;11289;52.524;13.694;2022-11-20T15:56:21;14.48;;;8.68;;
22240;SDS011;11289;52.524;13.694;2022-11-20T15:58:47;14.10;;;8.57;;
22240;SDS011;11289;52.524;13.694;2022-11-20T16:01:13;14.60;;;9.20;;
22240;SDS011;11289;52.524;13.694;2022-11-20T16:03:41;16.95;;;11.02;;
22240;SDS011;11289;52.524;13.694;2022-11-20T16:06:06;16.73;;;11.00;;
22240;SDS011;11289;52.524;13.694;2022-11-20T16:08:32;17.42;;;10.23;;
22240;SDS011;11289;52.524;13.694;2022-11-20T16:10:58;15.82;;;9.75;;
22240;SDS011;11289;52.524;13.694;2022-11-20T16:13:23;15.40;;;10.70;;